Time;durP1;ratioP1;P1;durP2;ratioP2;P2;SDS_P1;SDS_P2;PMS_P1;PMS_P2;Temp;Humidity;BMP_temperature;BMP_pressure;BME280_temperature;BME280_humidity;BME280_pressure;Samples;Min_cycle;Max_cycle;Signal;HPM_P1;HPM_P2
2022/11/25 00:02:12;;;;;;;23.33;12.48;;;205.50;2252.80;;;;;;6250477;22;20087;-87
2022/11/25 00:04:38;;;;;;;20.73;12.07;;;205.60;2252.80;;;;;;6251362;22;20365;-89
2022/11/25 00:07:03;;;;;;;20.65;11.30;;;205.60;2252.80;;;;;;6251248;22;20000;-90
2022/11/25 00:09:29;;;;;;;21.08;11.48;;;205.60;2252.80;;;;;;6251435;22;20026;-89
2022/11/25 00:11:55;;;;;;;18.58;10.18;;;205.60;2252.80;;;;;;6251344;22;20437;-93
2022/11/25 00:14:21;;;;;;;21.55;11.73;;;205.60;2252.80;;;;;;6277768;22;20004;-88
2022/11/25 00:16:47;;;;;;;24.63;11.30;;;205.70;2252.80;;;;;;6250775;22;20022;-89
2022/11/25 00:19:13;;;;;;;19.40;9.75;;;205.70;2252.80;;;;;;6250907;22;20315;-89
2022/11/25 00:21:38;;;;;;;15.00;8.93;;;205.70;2252.80;;;;;;6251250;22;20014;-89
2022/11/25 00:24:06;;;;;;;12.25;7.10;;;205.70;2252.80;;;;;;6250859;22;20054;-88
2022/11/25 00:26:33;;;;;;;15.55;8.98;;;205.60;2252.80;;;;;;6251520;22;20078;-88
2022/11/25 00:29:02;;;;;;;9.10;5.22;;;205.60;2252.80;;;;;;6251362;22;20082;-88
2022/11/25 00:31:30;;;;;;;10.75;5.78;;;205.60;2252.80;;;;;;6251581;22;20329;-89
2022/11/25 00:33:57;;;;;;;13.45;7.13;;;205.60;2252.80;;;;;;6251651;22;20034;-90
2022/11/25 00:36:29;;;;;;;18.15;10.98;;;205.60;2252.80;;;;;;6251551;22;20004;-87
2022/11/25 00:38:57;;;;;;;16.85;9.05;;;205.60;2252.80;;;;;;6251038;22;20010;-90
2022/11/25 00:46:57;;;;;;;25.92;13.30;;;205.60;2252.80;;;;;;6278018;22;20026;-91
2022/11/25 00:49:23;;;;;;;22.65;12.68;;;205.50;2252.80;;;;;;6250964;22;20433;-90
2022/11/25 00:51:49;;;;;;;15.43;8.57;;;205.50;2252.80;;;;;;6251361;22;20000;-90
2022/11/25 00:54:15;;;;;;;19.35;13.10;;;205.50;2252.80;;;;;;6251459;22;20367;-92
2022/11/25 00:56:41;;;;;;;22.58;12.95;;;205.50;2252.80;;;;;;6251049;22;20000;-91
2022/11/25 00:59:07;;;;;;;17.95;10.95;;;205.50;2252.80;;;;;;6250774;22;20047;-88
2022/11/25 01:01:33;;;;;;;10.43;5.97;;;205.50;2252.80;;;;;;6251065;22;20010;-90
2022/11/25 01:03:59;;;;;;;12.70;7.72;;;205.50;2252.80;;;;;;6251083;22;20004;-89
2022/11/25 01:06:25;;;;;;;29.90;13.13;;;205.50;2252.80;;;;;;6251347;22;20019;-91
2022/11/25 01:08:51;;;;;;;30.88;13.38;;;205.50;2252.80;;;;;;6251027;22;20315;-93
2022/11/25 01:11:20;;;;;;;31.10;16.73;;;205.50;2252.80;;;;;;6250919;22;20000;-92
2022/11/25 01:13:46;;;;;;;14.63;7.35;;;205.50;2252.80;;;;;;6250499;22;20038;-92
2022/11/25 01:16:15;;;;;;;13.80;8.20;;;205.50;2252.80;;;;;;6251344;22;20436;-92
2022/11/25 01:18:42;;;;;;;24.27;11.35;;;205.50;2252.80;;;;;;6250142;22;20038;-92
2022/11/25 01:21:15;;;;;;;22.33;12.68;;;205.50;2252.80;;;;;;6251070;22;20283;-90
2022/11/25 01:23:42;;;;;;;31.65;18.50;;;205.50;2252.80;;;;;;6251281;22;20085;-92
2022/11/25 01:26:10;;;;;;;21.52;12.98;;;205.60;2252.80;;;;;;6251003;22;20004;-90
2022/11/25 01:28:37;;;;;;;25.05;16.60;;;205.60;2252.80;;;;;;6250628;22;20008;-90
2022/11/25 01:31:05;;;;;;;21.15;13.73;;;205.50;2252.80;;;;;;6251242;22;20008;-89
2022/11/25 01:33:32;;;;;;;15.13;8.93;;;205.50;2252.80;;;;;;6250638;22;20414;-88
2022/11/25 01:36:02;;;;;;;25.42;13.57;;;205.50;2252.80;;;;;;6251110;22;20004;-89
2022/11/25 01:38:29;;;;;;;18.40;9.15;;;205.60;2252.80;;;;;;6251066;22;20011;-92
2022/11/25 01:40:55;;;;;;;22.95;11.68;;;205.60;2252.80;;;;;;6250700;22;20004;-90
2022/11/25 01:43:21;;;;;;;16.92;9.55;;;205.60;2252.80;;;;;;6251216;22;19999;-89
2022/11/25 01:45:47;;;;;;;19.50;8.55;;;205.50;2252.80;;;;;;6250931;22;20046;-89
2022/11/25 01:48:21;;;;;;;12.13;6.45;;;205.50;2252.80;;;;;;6250774;22;20065;-91
2022/11/25 01:50:48;;;;;;;10.68;5.25;;;205.50;2252.80;;;;;;6251240;22;20057;-89
2022/11/25 01:53:15;;;;;;;24.42;11.35;;;205.50;2252.80;;;;;;6250870;22;20052;-89
2022/11/25 01:55:46;;;;;;;23.67;12.27;;;205.60;2252.80;;;;;;6252506;22;20082;-89
2022/11/25 01:58:19;;;;;;;13.07;6.68;;;205.50;2252.80;;;;;;6253398;22;20430;-90
2022/11/25 02:00:50;;;;;;;14.38;7.45;;;205.50;2252.80;;;;;;6253095;22;20425;-89
2022/11/25 02:03:23;;;;;;;13.65;5.88;;;205.50;2252.80;;;;;;6252940;22;20023;-92
2022/11/25 02:06:19;;;;;;;12.77;6.13;;;205.50;2252.80;;;;;;6252956;22;20000;-90
2022/11/25 02:08:49;;;;;;;15.07;6.95;;;205.60;2252.80;;;;;;6252759;22;20373;-92
2022/11/25 02:11:16;;;;;;;12.52;7.13;;;205.50;2252.80;;;;;;6252634;22;20008;-89
2022/11/25 02:13:43;;;;;;;15.43;6.38;;;205.50;2252.80;;;;;;6258272;22;20008;-89
2022/11/25 02:16:09;;;;;;;13.07;7.53;;;205.60;2252.80;;;;;;6252797;22;20081;-91
2022/11/25 02:18:35;;;;;;;16.33;9.02;;;205.60;2252.80;;;;;;6252514;22;20004;-90
2022/11/25 02:21:01;;;;;;;17.15;9.45;;;205.60;2252.80;;;;;;6252376;22;20095;-93
2022/11/25 02:23:41;;;;;;;15.88;8.13;;;205.60;2252.80;;;;;;6252467;22;20042;-89
2022/11/25 02:26:07;;;;;;;11.30;5.32;;;205.60;2252.80;;;;;;6252739;22;20012;-90
2022/11/25 02:28:34;;;;;;;9.63;5.28;;;205.60;2252.80;;;;;;6252613;22;20047;-92
2022/11/25 02:31:00;;;;;;;8.20;4.88;;;205.50;2252.80;;;;;;6252568;22;20365;-90
2022/11/25 02:33:26;;;;;;;8.07;4.57;;;205.50;2252.80;;;;;;6252550;22;20030;-92
2022/11/25 02:35:57;;;;;;;9.35;4.72;;;205.50;2252.80;;;;;;6252249;22;20007;-90
2022/11/25 02:38:49;;;;;;;6.70;3.47;;;205.50;2252.80;;;;;;6252483;22;20049;-89
2022/11/25 02:41:26;;;;;;;7.55;4.03;;;205.50;2252.80;;;;;;6252185;22;20000;-90
2022/11/25 02:43:52;;;;;;;7.50;3.58;;;205.50;2252.80;;;;;;6252025;22;20000;-90
2022/11/25 02:46:20;;;;;;;29.73;11.70;;;205.50;2252.80;;;;;;6252096;22;20050;-91
2022/11/25 02:48:46;;;;;;;15.30;8.38;;;205.50;2252.80;;;;;;6252023;22;20007;-92
2022/11/25 02:51:15;;;;;;;13.75;7.05;;;205.50;2252.80;;;;;;6252222;22;20004;-90
2022/11/25 02:53:42;;;;;;;21.50;9.27;;;205.50;2252.80;;;;;;6252925;22;20019;-91
2022/11/25 02:56:10;;;;;;;27.08;11.57;;;205.70;2252.80;;;;;;6254087;22;19996;-90
2022/11/25 02:58:35;;;;;;;18.23;7.63;;;205.60;2252.80;;;;;;6253818;22;20053;-90
2022/11/25 03:01:01;;;;;;;21.17;9.38;;;205.50;2252.80;;;;;;6254666;22;20078;-92
2022/11/25 03:03:27;;;;;;;7.22;4.43;;;205.50;2252.80;;;;;;6252504;22;20006;-91
2022/11/25 03:05:53;;;;;;;5.88;3.30;;;205.50;2252.80;;;;;;6252236;22;20081;-91
2022/11/25 03:08:19;;;;;;;8.48;3.88;;;205.50;2252.80;;;;;;6252346;22;19999;-90
2022/11/25 03:10:45;;;;;;;7.50;3.97;;;205.50;2252.80;;;;;;6252396;22;20004;-91
2022/11/25 03:13:10;;;;;;;6.68;3.75;;;205.50;2252.80;;;;;;6252257;22;20061;-91
2022/11/25 03:15:36;;;;;;;8.25;3.50;;;205.50;2252.80;;;;;;6252298;22;20413;-90
2022/11/25 03:18:04;;;;;;;7.22;4.40;;;205.50;2252.80;;;;;;6252493;22;20007;-90
2022/11/25 03:20:30;;;;;;;6.38;3.78;;;230.50;2252.80;;;;;;6247217;23;20087;-90
2022/11/25 03:22:56;;;;;;;5.57;2.83;;;205.50;2252.80;;;;;;6247191;22;20007;-90
2022/11/25 03:25:22;;;;;;;6.07;3.05;;;205.50;2252.80;;;;;;6247258;22;20005;-91
2022/11/25 03:27:48;;;;;;;7.15;3.08;;;205.50;2252.80;;;;;;6247292;22;20007;-89
2022/11/25 03:30:20;;;;;;;4.47;2.65;;;205.60;2252.80;;;;;;6246976;22;20005;-91
2022/11/25 03:32:46;;;;;;;8.52;3.00;;;205.60;2252.80;;;;;;6246742;22;20137;-90
2022/11/25 03:35:13;;;;;;;6.45;2.97;;;205.60;2252.80;;;;;;6246947;22;20004;-91
2022/11/25 03:37:39;;;;;;;5.85;2.65;;;205.60;2252.80;;;;;;6246878;22;20001;-91
2022/11/25 03:40:06;;;;;;;6.85;2.92;;;205.60;2252.80;;;;;;6246778;22;20009;-91
2022/11/25 03:42:32;;;;;;;5.03;3.17;;;205.60;2252.80;;;;;;6246858;22;20000;-90
2022/11/25 03:44:58;;;;;;;6.43;3.75;;;205.70;2252.80;;;;;;6246835;22;20004;-90
2022/11/25 03:47:24;;;;;;;5.68;3.00;;;205.70;2252.80;;;;;;6246746;22;20055;-90
2022/11/25 03:49:50;;;;;;;6.30;3.80;;;205.70;2252.80;;;;;;6246925;22;20062;-90
2022/11/25 03:52:16;;;;;;;6.00;3.42;;;205.70;2252.80;;;;;;6246982;22;20003;-91
2022/11/25 03:54:43;;;;;;;5.15;3.25;;;205.60;2252.80;;;;;;6246292;22;20306;-90
2022/11/25 03:57:09;;;;;;;8.60;4.43;;;205.70;2252.80;;;;;;6246621;22;20004;-92
2022/11/25 03:59:35;;;;;;;9.68;4.15;;;205.60;2252.80;;;;;;6246288;22;20047;-91
2022/11/25 04:02:00;;;;;;;6.90;3.33;;;205.70;2252.80;;;;;;6246107;22;20339;-90
2022/11/25 04:04:27;;;;;;;7.07;3.10;;;205.70;2252.80;;;;;;6246486;22;20000;-90
2022/11/25 04:06:52;;;;;;;7.88;3.58;;;205.70;2252.80;;;;;;6246550;22;20104;-91
2022/11/25 04:09:18;;;;;;;5.95;3.80;;;205.70;2252.80;;;;;;6246430;22;20015;-91
2022/11/25 04:14:29;;;;;;;7.43;4.13;;;205.70;2252.80;;;;;;6247476;23;20050;-88
2022/11/25 04:16:55;;;;;;;8.18;4.80;;;205.70;2252.80;;;;;;6246099;22;20008;-90
2022/11/25 04:19:21;;;;;;;11.05;6.50;;;205.70;2252.80;;;;;;6246138;22;20050;-90
2022/11/25 04:21:47;;;;;;;8.38;4.75;;;205.70;2252.80;;;;;;6246196;22;20052;-90
2022/11/25 04:24:13;;;;;;;9.40;4.53;;;205.20;2252.80;;;;;;6246464;22;20011;-90
2022/11/25 04:26:39;;;;;;;8.13;4.47;;;205.70;2252.80;;;;;;6246248;22;20000;-88
2022/11/25 04:29:05;;;;;;;6.20;3.60;;;205.70;2252.80;;;;;;6245514;22;20008;-89
2022/11/25 04:31:31;;;;;;;6.97;3.65;;;205.70;2252.80;;;;;;6246321;22;20004;-89
2022/11/25 04:33:57;;;;;;;10.65;5.00;;;205.70;2252.80;;;;;;6246525;22;20011;-90
2022/11/25 04:36:23;;;;;;;11.38;5.97;;;205.70;2252.80;;;;;;6245719;22;20053;-90
2022/11/25 04:38:49;;;;;;;13.30;6.53;;;230.40;2252.80;;;;;;6246337;22;20059;-91
2022/11/25 04:41:15;;;;;;;12.05;5.97;;;205.70;2252.80;;;;;;6245804;22;20032;-91
2022/11/25 04:43:41;;;;;;;10.65;7.50;;;205.70;2252.80;;;;;;6246357;22;20027;-90
2022/11/25 04:46:08;;;;;;;9.68;6.32;;;205.70;2252.80;;;;;;6246347;22;19996;-90
2022/11/25 04:48:33;;;;;;;8.18;4.63;;;205.70;2252.80;;;;;;6246403;22;20004;-90
2022/11/25 04:50:59;;;;;;;8.60;4.22;;;205.70;2252.80;;;;;;6246231;22;20007;-90
2022/11/25 04:53:25;;;;;;;7.05;4.22;;;205.70;2252.80;;;;;;6245813;22;20099;-91
2022/11/25 04:55:51;;;;;;;8.43;4.07;;;205.70;2252.80;;;;;;6246070;22;20001;-91
2022/11/25 04:59:38;;;;;;;6.97;4.53;;;205.70;2252.80;;;;;;6245600;22;20003;-93
2022/11/25 05:01:02;;;;;;;6.82;4.30;;;230.40;2252.80;;;;;;6247072;22;20006;-89
2022/11/25 05:03:29;;;;;;;8.32;4.72;;;205.70;2252.80;;;;;;6246074;22;20004;-90
2022/11/25 05:05:54;;;;;;;19.10;9.10;;;205.70;2252.80;;;;;;6246219;22;19996;-90
2022/11/25 05:08:20;;;;;;;14.25;7.20;;;230.40;2252.80;;;;;;6246393;22;20010;-91
2022/11/25 05:10:46;;;;;;;15.52;7.95;;;230.40;2252.80;;;;;;6246014;22;20014;-90
2022/11/25 05:13:12;;;;;;;17.63;10.63;;;230.40;2252.80;;;;;;6246290;22;20000;-89
2022/11/25 05:15:37;;;;;;;15.32;9.02;;;230.40;2252.80;;;;;;6246124;22;20007;-90
2022/11/25 05:18:03;;;;;;;14.60;8.85;;;230.40;2252.80;;;;;;6245925;22;20008;-89
2022/11/25 05:20:29;;;;;;;68.53;29.02;;;230.50;2252.80;;;;;;6245920;22;20315;-89
2022/11/25 05:22:55;;;;;;;28.20;14.68;;;230.50;2252.80;;;;;;6248316;22;20001;-89
2022/11/25 05:25:23;;;;;;;27.63;12.25;;;230.40;2252.80;;;;;;6255405;22;20008;-89
2022/11/25 05:27:49;;;;;;;17.30;10.07;;;230.40;2252.80;;;;;;6256245;22;20060;-89
2022/11/25 05:30:15;;;;;;;17.17;10.73;;;230.40;2252.80;;;;;;6254812;22;20015;-92
2022/11/25 05:32:40;;;;;;;57.13;24.55;;;230.40;2252.80;;;;;;6247768;22;20437;-89
2022/11/25 05:35:07;;;;;;;45.13;20.88;;;205.70;2252.80;;;;;;6248152;22;19996;-90
2022/11/25 05:37:32;;;;;;;38.47;20.75;;;205.70;2252.80;;;;;;6248056;22;20000;-90
2022/11/25 05:39:58;;;;;;;24.52;15.35;;;205.70;2252.80;;;;;;6247865;22;20108;-90
2022/11/25 05:42:24;;;;;;;19.67;13.15;;;205.60;2252.80;;;;;;6248292;22;20031;-91
2022/11/25 05:44:50;;;;;;;18.60;10.80;;;205.60;2252.80;;;;;;6247350;22;20026;-90
2022/11/25 05:47:15;;;;;;;24.48;13.38;;;205.60;2252.80;;;;;;6247706;22;20008;-90
2022/11/25 05:49:41;;;;;;;60.33;29.83;;;205.60;2252.80;;;;;;6247513;22;20307;-91
2022/11/25 05:52:07;;;;;;;43.00;22.05;;;205.60;2252.80;;;;;;6247911;22;20004;-91
2022/11/25 05:54:33;;;;;;;30.67;19.15;;;205.60;2252.80;;;;;;6247913;22;20011;-93
2022/11/25 05:56:59;;;;;;;22.88;15.35;;;205.50;2252.80;;;;;;6247990;22;19996;-89
2022/11/25 05:59:24;;;;;;;22.55;14.38;;;205.40;2252.80;;;;;;6247817;22;20008;-89
2022/11/25 06:01:52;;;;;;;19.73;12.68;;;205.40;2252.80;;;;;;6247669;22;20418;-92
2022/11/25 06:04:18;;;;;;;24.55;16.85;;;205.40;2252.80;;;;;;6248638;22;20083;-93
2022/11/25 06:06:44;;;;;;;19.65;12.63;;;205.40;2252.80;;;;;;6248821;22;20007;-89
2022/11/25 06:09:09;;;;;;;26.38;16.40;;;205.40;2252.80;;;;;;6247635;22;20008;-90
2022/11/25 06:11:36;;;;;;;39.45;24.27;;;205.30;2252.80;;;;;;6247831;22;20434;-90
2022/11/25 06:14:02;;;;;;;97.13;60.75;;;205.40;2252.80;;;;;;6247149;22;20039;-90
2022/11/25 06:16:28;;;;;;;83.00;56.33;;;205.40;2252.80;;;;;;6247565;22;20004;-90
2022/11/25 06:18:54;;;;;;;33.97;24.95;;;205.60;2252.80;;;;;;6249637;22;20017;-90
2022/11/25 06:21:19;;;;;;;28.98;18.52;;;205.60;2252.80;;;;;;6252953;22;20027;-90
2022/11/25 06:23:45;;;;;;;25.10;14.82;;;205.70;2252.80;;;;;;6252767;22;20000;-90
2022/11/25 06:26:17;;;;;;;13.43;9.30;;;205.70;2252.80;;;;;;6252840;22;20053;-90
2022/11/25 06:28:43;;;;;;;16.02;9.90;;;230.40;2252.80;;;;;;6252458;22;20018;-91
2022/11/25 06:31:14;;;;;;;12.48;8.85;;;230.40;2252.80;;;;;;6252618;22;20000;-90
2022/11/25 06:33:40;;;;;;;13.55;7.53;;;230.40;2252.80;;;;;;6252639;22;19996;-90
2022/11/25 06:36:12;;;;;;;30.63;18.08;;;230.50;2252.80;;;;;;6252214;22;20475;-93
2022/11/25 06:38:38;;;;;;;21.40;13.32;;;230.50;2252.80;;;;;;6252576;22;20008;-90
2022/11/25 06:41:05;;;;;;;17.63;11.90;;;230.50;2252.80;;;;;;6251889;22;20372;-92
2022/11/25 06:43:31;;;;;;;14.20;9.23;;;230.60;2252.80;;;;;;6252594;22;20060;-90
2022/11/25 06:46:02;;;;;;;18.58;10.82;;;230.50;2252.80;;;;;;6252543;22;20007;-90
2022/11/25 06:48:28;;;;;;;17.08;10.68;;;230.60;2252.80;;;;;;6251986;22;19999;-90
2022/11/25 06:51:02;;;;;;;17.58;10.45;;;230.60;2252.80;;;;;;6252498;22;20039;-91
2022/11/25 06:53:27;;;;;;;14.30;8.30;;;230.60;2252.80;;;;;;6252291;22;20440;-92
2022/11/25 06:56:18;;;;;;;13.07;8.32;;;230.60;2252.80;;;;;;6252257;22;20011;-91
2022/11/25 06:58:45;;;;;;;10.65;7.05;;;230.70;2252.80;;;;;;6252454;22;20496;-91
2022/11/25 07:01:21;;;;;;;8.90;6.20;;;230.60;2252.80;;;;;;6252413;22;20007;-92
2022/11/25 07:03:50;;;;;;;9.65;6.40;;;230.70;2252.80;;;;;;6252065;22;20022;-90
2022/11/25 07:06:17;;;;;;;16.02;10.00;;;230.70;2252.80;;;;;;6252401;22;19999;-90
2022/11/25 07:08:44;;;;;;;16.02;11.35;;;230.70;2252.80;;;;;;6252048;22;20007;-90
2022/11/25 07:11:23;;;;;;;21.70;12.82;;;230.70;2252.80;;;;;;6252154;22;20426;-90
2022/11/25 07:14:00;;;;;;;16.48;9.13;;;230.80;2252.80;;;;;;6252614;22;20431;-91
2022/11/25 07:16:27;;;;;;;44.72;23.52;;;230.80;2252.80;;;;;;6252254;22;19996;-91
2022/11/25 07:18:54;;;;;;;20.90;12.60;;;230.80;2252.80;;;;;;6251987;22;20027;-90
2022/11/25 07:21:24;;;;;;;21.40;14.18;;;230.80;2252.80;;;;;;6252350;22;20007;-92
2022/11/25 07:23:51;;;;;;;16.98;11.05;;;230.80;2252.80;;;;;;6252232;22;20163;-92
2022/11/25 07:26:25;;;;;;;28.88;16.33;;;230.70;2252.80;;;;;;6252249;22;20410;-90
2022/11/25 07:28:53;;;;;;;51.20;31.80;;;230.80;2252.80;;;;;;6251965;22;20010;-89
2022/11/25 07:31:31;;;;;;;98.70;60.15;;;230.80;2252.80;;;;;;6251657;22;20008;-90
2022/11/25 07:34:12;;;;;;;91.78;61.20;;;230.70;2252.80;;;;;;6252137;22;20053;-90
2022/11/25 07:36:39;;;;;;;57.78;42.13;;;230.70;2252.80;;;;;;6252170;22;20440;-90
2022/11/25 07:39:07;;;;;;;119.22;64.05;;;230.80;2252.80;;;;;;6251870;22;20035;-92
2022/11/25 07:41:34;;;;;;;69.18;39.75;;;230.80;2252.80;;;;;;6251784;22;20011;-89
2022/11/25 07:44:02;;;;;;;48.08;29.33;;;230.80;2252.80;;;;;;6251601;22;20096;-90
2022/11/25 07:46:37;;;;;;;52.95;29.15;;;230.80;2252.80;;;;;;6251722;22;20046;-90
2022/11/25 07:49:07;;;;;;;51.22;28.15;;;230.80;2252.80;;;;;;6251643;22;20016;-88
2022/11/25 07:51:42;;;;;;;56.13;28.67;;;230.90;2252.80;;;;;;6251151;22;20011;-90
2022/11/25 07:54:10;;;;;;;60.47;30.73;;;230.90;2252.80;;;;;;6251612;22;19995;-89
2022/11/25 07:56:38;;;;;;;77.63;50.33;;;230.90;2252.80;;;;;;6251531;22;20035;-90
2022/11/25 07:59:06;;;;;;;52.13;32.88;;;231.00;2252.80;;;;;;6251917;22;20052;-89
2022/11/25 08:01:32;;;;;;;48.67;29.48;;;231.00;2252.80;;;;;;6252016;22;20004;-91
2022/11/25 08:03:57;;;;;;;41.05;26.35;;;231.00;2252.80;;;;;;6251761;22;20417;-89
2022/11/25 08:06:26;;;;;;;50.80;26.20;;;231.00;2252.80;;;;;;6251571;22;20059;-90
2022/11/25 08:08:54;;;;;;;16.35;9.75;;;231.00;2252.80;;;;;;6253129;22;20003;-90
2022/11/25 08:11:31;;;;;;;20.05;11.35;;;231.00;2252.80;;;;;;6254095;22;20011;-92
2022/11/25 08:13:57;;;;;;;25.80;12.90;;;231.00;2252.80;;;;;;6253475;22;19999;-90
2022/11/25 08:16:26;;;;;;;26.88;14.73;;;231.00;2252.80;;;;;;6253159;22;20030;-90
2022/11/25 08:18:53;;;;;;;30.80;18.10;;;231.10;2252.80;;;;;;6253136;22;20083;-89
2022/11/25 08:21:19;;;;;;;38.40;20.52;;;231.10;2252.80;;;;;;6252550;22;19999;-90
2022/11/25 08:23:51;;;;;;;32.42;20.58;;;231.20;2252.80;;;;;;6252149;22;20086;-90
2022/11/25 08:26:32;;;;;;;31.92;19.85;;;231.20;2252.80;;;;;;6252582;22;19996;-90
2022/11/25 08:28:59;;;;;;;23.85;15.85;;;231.30;2252.80;;;;;;6251191;22;20000;-89
2022/11/25 08:31:31;;;;;;;23.98;14.15;;;231.30;2252.80;;;;;;6252151;22;20011;-89
2022/11/25 08:33:57;;;;;;;19.13;10.93;;;256.00;2252.80;;;;;;6252179;22;20138;-89
2022/11/25 08:36:24;;;;;;;14.82;10.10;;;256.00;2252.80;;;;;;6252107;22;20224;-90
2022/11/25 08:38:53;;;;;;;14.50;9.95;;;256.00;2252.80;;;;;;6251420;22;20014;-90
2022/11/25 08:41:37;;;;;;;21.55;14.68;;;256.10;2252.80;;;;;;6254166;22;20004;-89
2022/11/25 08:44:06;;;;;;;28.25;23.88;;;256.10;2252.80;;;;;;6264983;22;20071;-85
2022/11/25 08:46:35;;;;;;;29.10;19.00;;;256.10;2252.80;;;;;;6276495;22;20006;-85
2022/11/25 08:49:07;;;;;;;18.60;13.65;;;256.10;2252.80;;;;;;6276272;22;20004;-83
2022/11/25 08:51:35;;;;;;;25.57;18.70;;;256.10;2252.80;;;;;;6276969;22;20046;-84
2022/11/25 08:54:03;;;;;;;15.35;12.23;;;256.20;2252.80;;;;;;6269265;22;20006;-88
2022/11/25 08:56:29;;;;;;;14.95;9.65;;;256.20;2252.80;;;;;;6267356;22;19999;-88
2022/11/25 08:58:55;;;;;;;13.43;8.88;;;256.30;2252.80;;;;;;6265415;22;20008;-90
2022/11/25 09:01:23;;;;;;;9.05;5.50;;;256.40;2252.80;;;;;;6254874;22;20007;-90
2022/11/25 09:03:51;;;;;;;14.98;11.55;;;256.40;2252.80;;;;;;6252821;22;20003;-90
2022/11/25 09:06:18;;;;;;;16.67;11.80;;;256.50;2252.80;;;;;;6253981;22;20000;-89
2022/11/25 09:08:44;;;;;;;11.68;6.90;;;256.40;2252.80;;;;;;6252921;22;20429;-89
2022/11/25 09:11:11;;;;;;;9.65;6.00;;;256.40;2252.80;;;;;;6253397;22;20018;-89
2022/11/25 09:13:37;;;;;;;16.83;9.50;;;256.40;2252.80;;;;;;6255496;22;19996;-90
2022/11/25 09:16:03;;;;;;;16.48;10.73;;;256.30;2252.80;;;;;;6252847;22;20074;-89
2022/11/25 09:18:30;;;;;;;19.58;13.40;;;256.30;2252.80;;;;;;6250079;22;20028;-89
2022/11/25 09:20:57;;;;;;;18.90;12.80;;;256.30;2252.80;;;;;;6250585;22;20090;-91
2022/11/25 09:23:24;;;;;;;13.07;9.18;;;256.30;2252.80;;;;;;6250817;22;20345;-91
2022/11/25 09:25:54;;;;;;;16.27;10.13;;;256.20;2252.80;;;;;;6250851;22;19995;-88
2022/11/25 09:28:21;;;;;;;16.88;12.00;;;256.20;2252.80;;;;;;6250925;22;20068;-89
2022/11/25 09:30:48;;;;;;;10.57;6.82;;;256.20;2252.80;;;;;;6250289;22;20430;-88
2022/11/25 09:33:14;;;;;;;11.80;6.63;;;256.20;2252.80;;;;;;6250395;22;20010;-89
2022/11/25 09:35:40;;;;;;;13.35;9.50;;;256.20;2252.80;;;;;;6250702;22;20056;-91
2022/11/25 09:38:06;;;;;;;11.32;8.13;;;256.20;2252.80;;;;;;6250442;22;20030;-88
2022/11/25 09:40:58;;;;;;;14.25;8.40;;;256.20;2252.80;;;;;;6250679;22;20014;-88
2022/11/25 09:46:42;;;;;;;22.90;14.88;;;256.30;2252.80;;;;;;6277405;22;20014;-89
2022/11/25 09:49:30;;;;;;;15.93;11.45;;;256.40;2252.80;;;;;;6250222;22;20000;-90
2022/11/25 09:52:02;;;;;;;17.23;12.43;;;256.40;2252.80;;;;;;6250063;22;20004;-90
2022/11/25 09:54:54;;;;;;;16.77;10.15;;;256.40;2252.80;;;;;;6250923;22;20158;-88
2022/11/25 09:57:40;;;;;;;21.23;13.00;;;256.30;2252.80;;;;;;6233488;22;20075;-89
2022/11/25 10:00:15;;;;;;;20.50;13.38;;;256.40;2252.80;;;;;;6250560;22;20063;-91
2022/11/25 10:02:59;;;;;;;23.17;14.70;;;256.40;2252.80;;;;;;6250593;22;20003;-89
2022/11/25 10:05:35;;;;;;;15.75;10.02;;;256.40;2252.80;;;;;;6250384;22;20000;-89
2022/11/25 10:08:11;;;;;;;20.05;12.35;;;256.50;2252.80;;;;;;6250349;22;19999;-88
2022/11/25 10:10:52;;;;;;;22.40;13.38;;;256.50;2252.80;;;;;;6250290;22;20007;-88
2022/11/25 10:13:31;;;;;;;19.25;12.82;;;256.50;2252.80;;;;;;6250312;22;20004;-88
2022/11/25 10:16:01;;;;;;;19.95;14.75;;;256.60;2252.80;;;;;;6251492;22;20000;-88
2022/11/25 10:18:57;;;;;;;19.50;11.52;;;256.50;2252.80;;;;;;6252332;22;20409;-89
2022/11/25 10:21:23;;;;;;;28.92;16.77;;;256.50;2252.80;;;;;;6216967;23;20017;-89
2022/11/25 10:23:49;;;;;;;35.75;19.10;;;256.50;2252.80;;;;;;6216752;23;20004;-89
2022/11/25 10:26:19;;;;;;;23.95;15.57;;;256.60;2252.80;;;;;;6216555;23;20008;-90
2022/11/25 10:29:26;;;;;;;21.05;14.32;;;256.60;2252.80;;;;;;6216523;23;20011;-88
2022/11/25 10:32:16;;;;;;;26.25;17.10;;;256.60;2252.80;;;;;;6216514;23;20327;-88
2022/11/25 10:34:48;;;;;;;16.30;11.55;;;256.60;2252.80;;;;;;6215676;23;20103;-92
2022/11/25 10:37:35;;;;;;;18.20;13.98;;;256.70;2252.80;;;;;;6216822;23;20000;-89
2022/11/25 10:40:01;;;;;;;21.30;13.73;;;256.70;2252.80;;;;;;6216470;23;20004;-89
2022/11/25 10:42:28;;;;;;;23.75;16.02;;;256.70;2252.80;;;;;;6216477;23;20007;-90
2022/11/25 10:44:54;;;;;;;33.17;18.23;;;256.70;2252.80;;;;;;6216736;23;20028;-90
2022/11/25 10:47:34;;;;;;;19.23;13.10;;;256.80;2252.80;;;;;;6216928;23;20461;-91
2022/11/25 10:50:00;;;;;;;17.90;11.40;;;256.80;2252.80;;;;;;6216950;23;20016;-91
2022/11/25 10:52:31;;;;;;;19.90;12.02;;;256.90;2252.80;;;;;;6217070;23;20005;-91
2022/11/25 10:55:07;;;;;;;17.25;11.80;;;256.90;2252.80;;;;;;6216711;23;20477;-91
2022/11/25 10:57:34;;;;;;;21.85;10.98;;;256.90;2252.80;;;;;;6218426;23;20068;-90
2022/11/25 11:00:02;;;;;;;18.35;13.52;;;256.90;2252.80;;;;;;6216641;23;20000;-90
2022/11/25 11:02:40;;;;;;;18.20;12.05;;;281.60;2278.40;;;;;;6216756;23;20024;-89
2022/11/25 11:05:09;;;;;;;15.38;10.88;;;281.60;2278.40;;;;;;6216807;23;20012;-91
2022/11/25 11:07:41;;;;;;;17.83;12.68;;;281.80;2278.40;;;;;;6216479;23;20498;-87
2022/11/25 11:10:43;;;;;;;13.77;9.23;;;281.80;2278.40;;;;;;6214863;23;20019;-92
2022/11/25 11:13:32;;;;;;;33.73;21.73;;;281.80;2278.40;;;;;;6217028;23;20087;-91
2022/11/25 11:15:58;;;;;;;37.95;24.58;;;281.90;2278.40;;;;;;6218045;23;19999;-92
2022/11/25 11:18:29;;;;;;;29.90;21.48;;;281.80;2278.40;;;;;;6216685;23;20091;-92
2022/11/25 11:20:59;;;;;;;34.30;22.17;;;281.90;2278.40;;;;;;6243985;23;20008;-92
2022/11/25 11:23:26;;;;;;;63.08;39.05;;;282.00;2278.40;;;;;;6247157;22;20004;-92
2022/11/25 11:26:04;;;;;;;51.25;36.05;;;281.80;2278.40;;;;;;6247054;22;20061;-92
2022/11/25 11:28:33;;;;;;;40.58;29.00;;;281.70;2278.40;;;;;;6247094;22;19996;-92
2022/11/25 11:31:05;;;;;;;50.30;34.30;;;281.70;2278.40;;;;;;6247014;22;20326;-91
2022/11/25 11:33:42;;;;;;;43.80;29.10;;;281.80;2278.40;;;;;;6246710;22;20004;-92
2022/11/25 11:36:14;;;;;;;44.67;31.80;;;281.80;2278.40;;;;;;6246533;22;20000;-91
2022/11/25 11:38:48;;;;;;;46.97;31.10;;;281.80;2278.40;;;;;;6247196;22;20437;-92
2022/11/25 11:41:36;;;;;;;42.25;28.80;;;281.80;2278.40;;;;;;6246984;22;20434;-92
2022/11/25 11:44:43;;;;;;;32.08;23.30;;;281.80;2278.40;;;;;;6204164;23;20027;-91
2022/11/25 11:47:32;;;;;;;34.90;25.58;;;281.80;2278.40;;;;;;6235030;23;20007;-92
2022/11/25 11:50:18;;;;;;;36.05;25.90;;;281.80;2278.40;;;;;;6221013;23;20075;-92
2022/11/25 11:53:24;;;;;;;29.95;22.35;;;281.70;2278.40;;;;;;6246585;22;20006;-92
2022/11/25 11:56:11;;;;;;;34.90;24.50;;;281.60;2278.40;;;;;;6201108;23;20525;-90
2022/11/25 11:58:40;;;;;;;43.67;27.60;;;281.70;2278.40;;;;;;6246652;22;20072;-90
2022/11/25 12:01:35;;;;;;;37.00;23.30;;;281.70;2278.40;;;;;;6246234;22;20372;-89
2022/11/25 12:04:26;;;;;;;35.55;23.58;;;281.60;2278.40;;;;;;6246911;22;20058;-92
2022/11/25 12:07:12;;;;;;;31.58;22.23;;;281.60;2278.40;;;;;;6247024;22;20087;-91
2022/11/25 12:09:54;;;;;;;30.45;23.30;;;281.60;2278.40;;;;;;6246582;23;20008;-91
2022/11/25 12:12:25;;;;;;;29.20;21.13;;;281.60;2278.40;;;;;;6246029;22;20004;-89
2022/11/25 12:15:02;;;;;;;29.33;21.63;;;281.60;2278.40;;;;;;6246100;22;20000;-93
2022/11/25 12:17:47;;;;;;;33.67;22.75;;;281.60;2278.40;;;;;;6247900;22;20003;-90
2022/11/25 12:20:16;;;;;;;24.60;19.83;;;256.90;2252.80;;;;;;6246851;22;20047;-87
2022/11/25 12:22:51;;;;;;;35.70;27.88;;;281.60;2278.40;;;;;;6246864;22;20085;-93
2022/11/25 12:25:25;;;;;;;36.42;25.05;;;281.60;2278.40;;;;;;6246535;22;20011;-91
2022/11/25 12:28:05;;;;;;;38.10;25.85;;;256.90;2252.80;;;;;;6246615;22;20079;-91
2022/11/25 12:30:39;;;;;;;36.90;26.02;;;256.90;2252.80;;;;;;6246681;22;20091;-92